sensor_id;sensor_type;location;lat;lon;timestamp;temperature;humidity
43906;DHT22;29564;46.622;13.818;2022-08-02T00:00:41;20.90;99.90
43906;DHT22;29564;46.622;13.818;2022-08-02T00:01:43;20.90;99.90
43906;DHT22;29564;46.622;13.818;2022-08-02T00:02:45;20.90;99.90
43906;DHT22;29564;46.622;13.818;2022-08-02T00:03:46;21.00;99.90
43906;DHT22;29564;46.622;13.818;2022-08-02T00:04:47;20.90;99.90
43906;DHT22;29564;46.622;13.818;2022-08-02T00:05:49;20.90;99.90
43906;DHT22;29564;46.622;13.818;2022-08-02T00:06:50;20.80;99.60
43906;DHT22;29564;46.622;13.818;2022-08-02T00:07:51;20.80;99.90
43906;DHT22;29564;46.622;13.818;2022-08-02T00:08:52;21.00;99.80
43906;DHT22;29564;46.622;13.818;2022-08-02T00:09:54;21.30;99.80
43906;DHT22;29564;46.622;13.818;2022-08-02T00:10:55;21.40;99.60
43906;DHT22;29564;46.622;13.818;2022-08-02T00:11:56;21.40;99.00
43906;DHT22;29564;46.622;13.818;2022-08-02T00:12:58;21.30;99.20
43906;DHT22;29564;46.622;13.818;2022-08-02T00:13:59;21.20;99.80
43906;DHT22;29564;46.622;13.818;2022-08-02T00:15:00;21.10;99.30
43906;DHT22;29564;46.622;13.818;2022-08-02T00:16:01;21.10;99.80
43906;DHT22;29564;46.622;13.818;2022-08-02T00:17:04;21.20;98.90
43906;DHT22;29564;46.622;13.818;2022-08-02T00:18:05;21.10;98.00
43906;DHT22;29564;46.622;13.818;2022-08-02T00:19:06;21.10;98.90
43906;DHT22;29564;46.622;13.818;2022-08-02T00:20:07;21.20;99.50
43906;DHT22;29564;46.622;13.818;2022-08-02T00:21:09;21.30;98.80
43906;DHT22;29564;46.622;13.818;2022-08-02T00:22:10;21.30;99.60
43906;DHT22;29564;46.622;13.818;2022-08-02T00:23:12;21.20;99.60
43906;DHT22;29564;46.622;13.818;2022-08-02T00:24:13;21.10;99.90
43906;DHT22;29564;46.622;13.818;2022-08-02T00:25:14;21.00;99.90
43906;DHT22;29564;46.622;13.818;2022-08-02T00:26:15;20.90;99.90
43906;DHT22;29564;46.622;13.818;2022-08-02T00:27:16;20.80;99.90
43906;DHT22;29564;46.622;13.818;2022-08-02T00:28:17;20.80;99.90
43906;DHT22;29564;46.622;13.818;2022-08-02T00:29:19;20.80;99.90
43906;DHT22;29564;46.622;13.818;2022-08-02T00:30:20;20.90;99.90
43906;DHT22;29564;46.622;13.818;2022-08-02T00:31:21;20.90;99.90
43906;DHT22;29564;46.622;13.818;2022-08-02T00:32:22;21.00;99.90
43906;DHT22;29564;46.622;13.818;2022-08-02T00:33:25;20.80;99.90
43906;DHT22;29564;46.622;13.818;2022-08-02T00:34:27;20.50;99.90
43906;DHT22;29564;46.622;13.818;2022-08-02T00:35:28;20.70;99.90
43906;DHT22;29564;46.622;13.818;2022-08-02T00:36:29;20.80;99.90
43906;DHT22;29564;46.622;13.818;2022-08-02T00:37:30;20.80;99.90
43906;DHT22;29564;46.622;13.818;2022-08-02T00:38:31;20.70;99.90
43906;DHT22;29564;46.622;13.818;2022-08-02T00:39:32;20.50;99.90
43906;DHT22;29564;46.622;13.818;2022-08-02T00:40:34;20.40;99.90
43906;DHT22;29564;46.622;13.818;2022-08-02T00:41:47;20.30;99.90
43906;DHT22;29564;46.622;13.818;2022-08-02T00:43:06;20.30;99.90
43906;DHT22;29564;46.622;13.818;2022-08-02T00:44:07;20.50;99.90
43906;DHT22;29564;46.622;13.818;2022-08-02T00:45:09;20.40;99.90
43906;DHT22;29564;46.622;13.818;2022-08-02T00:46:10;20.30;99.90
43906;DHT22;29564;46.622;13.818;2022-08-02T00:47:12;20.40;99.90
43906;DHT22;29564;46.622;13.818;2022-08-02T00:48:13;20.40;99.90
43906;DHT22;29564;46.622;13.818;2022-08-02T00:49:14;20.50;99.90
43906;DHT22;29564;46.622;13.818;2022-08-02T00:50:16;20.40;99.90
43906;DHT22;29564;46.622;13.818;2022-08-02T00:51:17;20.40;99.90
43906;DHT22;29564;46.622;13.818;2022-08-02T00:52:18;20.40;99.90
43906;DHT22;29564;46.622;13.818;2022-08-02T00:53:19;20.40;99.90
43906;DHT22;29564;46.622;13.818;2022-08-02T00:54:20;20.50;99.90
43906;DHT22;29564;46.622;13.818;2022-08-02T00:55:22;20.40;99.90
43906;DHT22;29564;46.622;13.818;2022-08-02T00:56:23;20.30;99.90
43906;DHT22;29564;46.622;13.818;2022-08-02T00:57:24;20.30;99.90
43906;DHT22;29564;46.622;13.818;2022-08-02T00:58:26;20.40;99.90
43906;DHT22;29564;46.622;13.818;2022-08-02T00:59:28;20.50;99.90
43906;DHT22;29564;46.622;13.818;2022-08-02T01:00:29;20.60;99.90
43906;DHT22;29564;46.622;13.818;2022-08-02T01:01:30;20.60;99.90
43906;DHT22;29564;46.622;13.818;2022-08-02T01:02:38;20.60;99.90
43906;DHT22;29564;46.622;13.818;2022-08-02T01:03:39;20.60;99.90
43906;DHT22;29564;46.622;13.818;2022-08-02T01:04:40;20.50;99.90
43906;DHT22;29564;46.622;13.818;2022-08-02T01:05:41;20.50;99.90
43906;DHT22;29564;46.622;13.818;2022-08-02T01:06:44;20.50;99.90
43906;DHT22;29564;46.622;13.818;2022-08-02T01:07:45;20.60;99.90
43906;DHT22;29564;46.622;13.818;2022-08-02T01:08:46;20.70;99.90
43906;DHT22;29564;46.622;13.818;2022-08-02T01:09:47;20.80;99.90
43906;DHT22;29564;46.622;13.818;2022-08-02T01:10:48;20.70;99.90
43906;DHT22;29564;46.622;13.818;2022-08-02T01:11:50;20.50;99.90
43906;DHT22;29564;46.622;13.818;2022-08-02T01:12:51;20.40;99.90
43906;DHT22;29564;46.622;13.818;2022-08-02T01:13:54;20.40;99.90
43906;DHT22;29564;46.622;13.818;2022-08-02T01:14:58;20.40;99.90
43906;DHT22;29564;46.622;13.818;2022-08-02T01:16:05;20.40;99.90
43906;DHT22;29564;46.622;13.818;2022-08-02T01:17:38;20.50;99.90
43906;DHT22;29564;46.622;13.818;2022-08-02T01:18:39;20.60;99.90
43906;DHT22;29564;46.622;13.818;2022-08-02T01:21:28;20.70;99.90
43906;DHT22;29564;46.622;13.818;2022-08-02T01:24:26;20.80;99.90
43906;DHT22;29564;46.622;13.818;2022-08-02T01:28:29;20.60;99.90
43906;DHT22;29564;46.622;13.818;2022-08-02T01:29:34;20.60;99.90
43906;DHT22;29564;46.622;13.818;2022-08-02T01:30:38;20.60;99.90
43906;DHT22;29564;46.622;13.818;2022-08-02T01:31:59;20.60;99.90
43906;DHT22;29564;46.622;13.818;2022-08-02T01:33:04;20.60;99.90
43906;DHT22;29564;46.622;13.818;2022-08-02T01:34:16;20.70;99.90
43906;DHT22;29564;46.622;13.818;2022-08-02T01:35:26;20.60;99.90
43906;DHT22;29564;46.622;13.818;2022-08-02T01:36:33;20.60;99.90
43906;DHT22;29564;46.622;13.818;2022-08-02T01:37:43;20.60;99.90
43906;DHT22;29564;46.622;13.818;2022-08-02T01:38:49;20.80;99.90
43906;DHT22;29564;46.622;13.818;2022-08-02T01:40:02;20.90;99.90
43906;DHT22;29564;46.622;13.818;2022-08-02T01:41:09;21.00;99.90
43906;DHT22;29564;46.622;13.818;2022-08-02T01:42:12;21.00;99.90
43906;DHT22;29564;46.622;13.818;2022-08-02T01:43:14;21.00;99.90
43906;DHT22;29564;46.622;13.818;2022-08-02T01:44:18;20.90;99.90
43906;DHT22;29564;46.622;13.818;2022-08-02T01:45:28;20.80;99.90
43906;DHT22;29564;46.622;13.818;2022-08-02T01:46:32;20.70;99.90
43906;DHT22;29564;46.622;13.818;2022-08-02T01:47:36;20.60;99.90
43906;DHT22;29564;46.622;13.818;2022-08-02T01:48:40;20.60;99.90
43906;DHT22;29564;46.622;13.818;2022-08-02T01:49:46;20.60;99.90
43906;DHT22;29564;46.622;13.818;2022-08-02T01:50:48;20.50;99.90
43906;DHT22;29564;46.622;13.818;2022-08-02T01:51:51;20.50;99.90
43906;DHT22;29564;46.622;13.818;2022-08-02T01:53:13;20.50;99.90
43906;DHT22;29564;46.622;13.818;2022-08-02T01:54:17;20.40;99.90
43906;DHT22;29564;46.622;13.818;2022-08-02T01:55:22;20.60;99.90
43906;DHT22;29564;46.622;13.818;2022-08-02T01:56:23;20.70;99.90
43906;DHT22;29564;46.622;13.818;2022-08-02T01:57:26;20.90;99.90
43906;DHT22;29564;46.622;13.818;2022-08-02T01:58:34;21.00;99.90
43906;DHT22;29564;46.622;13.818;2022-08-02T01:59:36;20.90;99.90
43906;DHT22;29564;46.622;13.818;2022-08-02T02:00:41;20.90;99.90
43906;DHT22;29564;46.622;13.818;2022-08-02T02:01:43;20.70;99.90
43906;DHT22;29564;46.622;13.818;2022-08-02T02:02:47;20.80;99.90
43906;DHT22;29564;46.622;13.818;2022-08-02T02:03:49;20.80;99.90
43906;DHT22;29564;46.622;13.818;2022-08-02T02:04:50;20.80;99.90
43906;DHT22;29564;46.622;13.818;2022-08-02T02:05:55;20.70;99.90
43906;DHT22;29564;46.622;13.818;2022-08-02T02:06:57;20.50;99.90
43906;DHT22;29564;46.622;13.818;2022-08-02T02:08:00;20.40;99.90
43906;DHT22;29564;46.622;13.818;2022-08-02T02:09:04;20.30;99.90
43906;DHT22;29564;46.622;13.818;2022-08-02T02:10:06;20.40;99.90
43906;DHT22;29564;46.622;13.818;2022-08-02T02:11:09;20.60;99.90
43906;DHT22;29564;46.622;13.818;2022-08-02T02:12:12;20.70;99.90
43906;DHT22;29564;46.622;13.818;2022-08-02T02:13:16;20.70;99.90
43906;DHT22;29564;46.622;13.818;2022-08-02T02:14:20;20.70;99.90
43906;DHT22;29564;46.622;13.818;2022-08-02T02:15:22;20.70;99.90
43906;DHT22;29564;46.622;13.818;2022-08-02T02:16:24;20.60;99.90
43906;DHT22;29564;46.622;13.818;2022-08-02T02:17:28;20.50;99.90
43906;DHT22;29564;46.622;13.818;2022-08-02T02:18:32;20.50;99.90
43906;DHT22;29564;46.622;13.818;2022-08-02T02:19:38;20.60;99.90
43906;DHT22;29564;46.622;13.818;2022-08-02T02:20:41;20.70;99.90
43906;DHT22;29564;46.622;13.818;2022-08-02T02:21:42;20.50;99.90
43906;DHT22;29564;46.622;13.818;2022-08-02T02:22:44;20.50;99.90
43906;DHT22;29564;46.622;13.818;2022-08-02T02:23:45;20.50;99.90
43906;DHT22;29564;46.622;13.818;2022-08-02T02:24:46;20.60;99.90
43906;DHT22;29564;46.622;13.818;2022-08-02T02:25:48;20.60;99.90
43906;DHT22;29564;46.622;13.818;2022-08-02T02:26:50;20.40;99.90
43906;DHT22;29564;46.622;13.818;2022-08-02T02:27:56;20.40;99.90
43906;DHT22;29564;46.622;13.818;2022-08-02T02:29:01;20.40;99.90
43906;DHT22;29564;46.622;13.818;2022-08-02T02:30:03;20.50;99.90
43906;DHT22;29564;46.622;13.818;2022-08-02T02:31:13;20.50;99.90
43906;DHT22;29564;46.622;13.818;2022-08-02T02:32:15;20.50;99.90
43906;DHT22;29564;46.622;13.818;2022-08-02T02:33:18;20.40;99.90
43906;DHT22;29564;46.622;13.818;2022-08-02T02:34:41;20.50;99.90
43906;DHT22;29564;46.622;13.818;2022-08-02T02:35:44;20.50;99.90
43906;DHT22;29564;46.622;13.818;2022-08-02T02:36:49;20.60;99.90
43906;DHT22;29564;46.622;13.818;2022-08-02T02:37:51;20.70;99.90
43906;DHT22;29564;46.622;13.818;2022-08-02T02:38:56;20.80;99.90
43906;DHT22;29564;46.622;13.818;2022-08-02T02:39:59;20.70;99.90
43906;DHT22;29564;46.622;13.818;2022-08-02T02:41:04;20.80;99.90
43906;DHT22;29564;46.622;13.818;2022-08-02T02:42:08;20.80;99.90
43906;DHT22;29564;46.622;13.818;2022-08-02T02:43:11;20.70;99.90
43906;DHT22;29564;46.622;13.818;2022-08-02T02:44:17;20.80;99.90
43906;DHT22;29564;46.622;13.818;2022-08-02T02:45:19;20.80;99.90
43906;DHT22;29564;46.622;13.818;2022-08-02T02:46:21;20.80;99.90
43906;DHT22;29564;46.622;13.818;2022-08-02T02:47:23;20.80;99.90
43906;DHT22;29564;46.622;13.818;2022-08-02T02:48:26;20.80;99.90
43906;DHT22;29564;46.622;13.818;2022-08-02T02:49:31;20.80;99.90
43906;DHT22;29564;46.622;13.818;2022-08-02T02:50:33;20.70;99.90
43906;DHT22;29564;46.622;13.818;2022-08-02T02:51:38;20.60;99.90
43906;DHT22;29564;46.622;13.818;2022-08-02T02:52:39;20.70;99.90
43906;DHT22;29564;46.622;13.818;2022-08-02T02:53:42;20.70;99.90
43906;DHT22;29564;46.622;13.818;2022-08-02T02:54:46;20.60;99.90
43906;DHT22;29564;46.622;13.818;2022-08-02T02:55:48;20.50;99.90
43906;DHT22;29564;46.622;13.818;2022-08-02T02:56:51;20.50;99.90
43906;DHT22;29564;46.622;13.818;2022-08-02T02:57:54;20.50;99.90
43906;DHT22;29564;46.622;13.818;2022-08-02T02:58:55;20.60;99.90
43906;DHT22;29564;46.622;13.818;2022-08-02T02:59:57;20.60;99.90
43906;DHT22;29564;46.622;13.818;2022-08-02T03:00:59;20.60;99.90
43906;DHT22;29564;46.622;13.818;2022-08-02T03:02:19;20.60;99.90
43906;DHT22;29564;46.622;13.818;2022-08-02T03:03:21;20.60;99.90
43906;DHT22;29564;46.622;13.818;2022-08-02T03:04:23;20.60;99.90
43906;DHT22;29564;46.622;13.818;2022-08-02T03:05:25;20.60;99.90
43906;DHT22;29564;46.622;13.818;2022-08-02T03:06:27;20.60;99.90
43906;DHT22;29564;46.622;13.818;2022-08-02T03:07:28;20.70;99.90
43906;DHT22;29564;46.622;13.818;2022-08-02T03:08:32;20.70;99.90
43906;DHT22;29564;46.622;13.818;2022-08-02T03:09:33;20.50;99.90
43906;DHT22;29564;46.622;13.818;2022-08-02T03:10:35;20.60;99.90
43906;DHT22;29564;46.622;13.818;2022-08-02T03:11:38;20.60;99.90
43906;DHT22;29564;46.622;13.818;2022-08-02T03:12:40;20.60;99.90
43906;DHT22;29564;46.622;13.818;2022-08-02T03:13:41;20.70;99.90
43906;DHT22;29564;46.622;13.818;2022-08-02T03:14:43;20.60;99.90
43906;DHT22;29564;46.622;13.818;2022-08-02T03:15:45;20.50;99.90
43906;DHT22;29564;46.622;13.818;2022-08-02T03:16:50;20.50;99.90
43906;DHT22;29564;46.622;13.818;2022-08-02T03:17:51;20.40;99.90
43906;DHT22;29564;46.622;13.818;2022-08-02T03:18:53;20.40;99.90
43906;DHT22;29564;46.622;13.818;2022-08-02T03:19:54;20.40;99.90
43906;DHT22;29564;46.622;13.818;2022-08-02T03:21:00;20.50;99.90
43906;DHT22;29564;46.622;13.818;2022-08-02T03:22:01;20.60;99.90
43906;DHT22;29564;46.622;13.818;2022-08-02T03:23:03;20.60;99.90
43906;DHT22;29564;46.622;13.818;2022-08-02T03:24:04;20.60;99.90
43906;DHT22;29564;46.622;13.818;2022-08-02T03:25:07;20.50;99.90
43906;DHT22;29564;46.622;13.818;2022-08-02T03:26:09;20.60;99.90
43906;DHT22;29564;46.622;13.818;2022-08-02T03:27:10;20.50;99.90
43906;DHT22;29564;46.622;13.818;2022-08-02T03:28:11;20.60;99.90
43906;DHT22;29564;46.622;13.818;2022-08-02T03:29:12;20.60;99.90
43906;DHT22;29564;46.622;13.818;2022-08-02T03:30:14;20.50;99.90
43906;DHT22;29564;46.622;13.818;2022-08-02T03:31:15;20.60;99.90
43906;DHT22;29564;46.622;13.818;2022-08-02T03:32:16;20.60;99.90
43906;DHT22;29564;46.622;13.818;2022-08-02T03:33:19;20.60;99.90
43906;DHT22;29564;46.622;13.818;2022-08-02T03:34:20;20.60;99.90
43906;DHT22;29564;46.622;13.818;2022-08-02T03:35:22;20.60;99.90
43906;DHT22;29564;46.622;13.818;2022-08-02T03:36:26;20.70;99.90
43906;DHT22;29564;46.622;13.818;2022-08-02T03:37:28;20.60;99.90
43906;DHT22;29564;46.622;13.818;2022-08-02T03:38:31;20.60;99.90
43906;DHT22;29564;46.622;13.818;2022-08-02T03:39:34;20.40;99.90
43906;DHT22;29564;46.622;13.818;2022-08-02T03:40:35;20.30;99.90
43906;DHT22;29564;46.622;13.818;2022-08-02T03:41:37;20.40;99.90
43906;DHT22;29564;46.622;13.818;2022-08-02T03:42:39;20.40;99.90
43906;DHT22;29564;46.622;13.818;2022-08-02T03:43:41;20.40;99.90
43906;DHT22;29564;46.622;13.818;2022-08-02T03:44:44;20.30;99.90
43906;DHT22;29564;46.622;13.818;2022-08-02T03:45:47;20.30;99.90
43906;DHT22;29564;46.622;13.818;2022-08-02T03:46:48;20.50;99.90
43906;DHT22;29564;46.622;13.818;2022-08-02T03:47:51;20.50;99.90
43906;DHT22;29564;46.622;13.818;2022-08-02T03:48:53;20.40;99.90
43906;DHT22;29564;46.622;13.818;2022-08-02T03:49:56;20.40;99.90
43906;DHT22;29564;46.622;13.818;2022-08-02T03:50:58;20.50;99.90
43906;DHT22;29564;46.622;13.818;2022-08-02T03:52:00;20.40;99.90
43906;DHT22;29564;46.622;13.818;2022-08-02T03:53:02;20.50;99.90
43906;DHT22;29564;46.622;13.818;2022-08-02T03:54:03;20.50;99.90
43906;DHT22;29564;46.622;13.818;2022-08-02T03:55:05;20.60;99.90
43906;DHT22;29564;46.622;13.818;2022-08-02T03:56:06;20.50;99.90
43906;DHT22;29564;46.622;13.818;2022-08-02T03:57:09;20.40;99.90
43906;DHT22;29564;46.622;13.818;2022-08-02T03:58:20;20.30;99.90
43906;DHT22;29564;46.622;13.818;2022-08-02T03:59:22;20.30;99.90
43906;DHT22;29564;46.622;13.818;2022-08-02T04:00:23;20.30;99.90
43906;DHT22;29564;46.622;13.818;2022-08-02T04:01:24;20.30;99.90
43906;DHT22;29564;46.622;13.818;2022-08-02T04:02:27;20.40;99.90
43906;DHT22;29564;46.622;13.818;2022-08-02T04:03:28;20.50;99.90
43906;DHT22;29564;46.622;13.818;2022-08-02T04:04:29;20.60;99.90
43906;DHT22;29564;46.622;13.818;2022-08-02T04:05:30;20.50;99.90
43906;DHT22;29564;46.622;13.818;2022-08-02T04:06:32;20.40;99.90
43906;DHT22;29564;46.622;13.818;2022-08-02T04:07:33;20.50;99.90
43906;DHT22;29564;46.622;13.818;2022-08-02T04:08:34;20.40;99.90
43906;DHT22;29564;46.622;13.818;2022-08-02T04:09:35;20.30;99.90
43906;DHT22;29564;46.622;13.818;2022-08-02T04:10:37;20.10;99.90
43906;DHT22;29564;46.622;13.818;2022-08-02T04:11:56;20.00;99.90
43906;DHT22;29564;46.622;13.818;2022-08-02T04:12:59;20.00;99.90
43906;DHT22;29564;46.622;13.818;2022-08-02T04:14:10;20.10;99.90
43906;DHT22;29564;46.622;13.818;2022-08-02T04:15:13;20.10;99.90
43906;DHT22;29564;46.622;13.818;2022-08-02T04:16:19;20.20;99.90
43906;DHT22;29564;46.622;13.818;2022-08-02T04:17:22;20.20;99.90
43906;DHT22;29564;46.622;13.818;2022-08-02T04:18:27;20.10;99.90
43906;DHT22;29564;46.622;13.818;2022-08-02T04:19:49;20.20;99.90
43906;DHT22;29564;46.622;13.818;2022-08-02T04:20:51;20.20;99.90
43906;DHT22;29564;46.622;13.818;2022-08-02T04:21:54;20.30;99.90
43906;DHT22;29564;46.622;13.818;2022-08-02T04:23:06;20.20;99.90
43906;DHT22;29564;46.622;13.818;2022-08-02T04:24:10;20.10;99.90
43906;DHT22;29564;46.622;13.818;2022-08-02T04:25:13;20.20;99.90
43906;DHT22;29564;46.622;13.818;2022-08-02T04:26:16;20.30;99.90
43906;DHT22;29564;46.622;13.818;2022-08-02T04:27:19;20.30;99.90
43906;DHT22;29564;46.622;13.818;2022-08-02T04:28:20;20.20;99.90
43906;DHT22;29564;46.622;13.818;2022-08-02T04:29:23;20.10;99.90
43906;DHT22;29564;46.622;13.818;2022-08-02T04:30:25;20.10;99.90
43906;DHT22;29564;46.622;13.818;2022-08-02T04:31:26;20.20;99.90
43906;DHT22;29564;46.622;13.818;2022-08-02T04:32:28;20.20;99.90
43906;DHT22;29564;46.622;13.818;2022-08-02T04:33:31;20.30;99.90
43906;DHT22;29564;46.622;13.818;2022-08-02T04:34:32;20.20;99.90
43906;DHT22;29564;46.622;13.818;2022-08-02T04:35:33;20.20;99.90
43906;DHT22;29564;46.622;13.818;2022-08-02T04:36:35;20.30;99.90
43906;DHT22;29564;46.622;13.818;2022-08-02T04:37:38;20.40;99.90
43906;DHT22;29564;46.622;13.818;2022-08-02T04:38:40;20.40;99.90
43906;DHT22;29564;46.622;13.818;2022-08-02T04:39:42;20.30;99.90
43906;DHT22;29564;46.622;13.818;2022-08-02T04:40:51;20.30;99.90
43906;DHT22;29564;46.622;13.818;2022-08-02T04:41:52;20.20;99.90
43906;DHT22;29564;46.622;13.818;2022-08-02T04:42:53;20.30;99.90
43906;DHT22;29564;46.622;13.818;2022-08-02T04:43:54;20.30;99.90
43906;DHT22;29564;46.622;13.818;2022-08-02T04:44:56;20.20;99.90
43906;DHT22;29564;46.622;13.818;2022-08-02T04:45:58;20.20;99.90
43906;DHT22;29564;46.622;13.818;2022-08-02T04:47:02;20.20;99.90
43906;DHT22;29564;46.622;13.818;2022-08-02T04:48:05;20.10;99.90
43906;DHT22;29564;46.622;13.818;2022-08-02T04:49:07;20.00;99.90
43906;DHT22;29564;46.622;13.818;2022-08-02T04:50:08;20.00;99.90
43906;DHT22;29564;46.622;13.818;2022-08-02T04:51:09;20.00;99.90
43906;DHT22;29564;46.622;13.818;2022-08-02T04:52:11;20.00;99.90
43906;DHT22;29564;46.622;13.818;2022-08-02T04:53:12;20.00;99.90
43906;DHT22;29564;46.622;13.818;2022-08-02T04:54:13;20.00;99.90
43906;DHT22;29564;46.622;13.818;2022-08-02T04:55:14;19.90;99.90
43906;DHT22;29564;46.622;13.818;2022-08-02T04:56:15;20.00;99.90
43906;DHT22;29564;46.622;13.818;2022-08-02T04:57:17;20.00;99.90
43906;DHT22;29564;46.622;13.818;2022-08-02T04:58:36;20.10;99.90
43906;DHT22;29564;46.622;13.818;2022-08-02T04:59:37;20.20;99.90
43906;DHT22;29564;46.622;13.818;2022-08-02T05:00:39;20.20;99.90
43906;DHT22;29564;46.622;13.818;2022-08-02T05:01:40;20.20;99.90
43906;DHT22;29564;46.622;13.818;2022-08-02T05:02:42;20.30;99.90
43906;DHT22;29564;46.622;13.818;2022-08-02T05:03:43;20.30;99.90
43906;DHT22;29564;46.622;13.818;2022-08-02T05:04:44;20.30;99.90
43906;DHT22;29564;46.622;13.818;2022-08-02T05:05:45;20.10;99.90
43906;DHT22;29564;46.622;13.818;2022-08-02T05:06:46;20.00;99.90
43906;DHT22;29564;46.622;13.818;2022-08-02T05:07:47;20.00;99.90
43906;DHT22;29564;46.622;13.818;2022-08-02T05:08:49;19.90;99.90
43906;DHT22;29564;46.622;13.818;2022-08-02T05:09:50;20.00;99.90
43906;DHT22;29564;46.622;13.818;2022-08-02T05:10:51;20.10;99.90
43906;DHT22;29564;46.622;13.818;2022-08-02T05:11:52;20.20;99.90
43906;DHT22;29564;46.622;13.818;2022-08-02T05:12:54;20.30;99.90
43906;DHT22;29564;46.622;13.818;2022-08-02T05:13:55;20.20;99.90
43906;DHT22;29564;46.622;13.818;2022-08-02T05:14:56;20.30;99.90
43906;DHT22;29564;46.622;13.818;2022-08-02T05:15:57;20.20;99.90
43906;DHT22;29564;46.622;13.818;2022-08-02T05:17:03;20.20;99.90
43906;DHT22;29564;46.622;13.818;2022-08-02T05:18:04;20.20;99.90
43906;DHT22;29564;46.622;13.818;2022-08-02T05:19:05;20.30;99.90
43906;DHT22;29564;46.622;13.818;2022-08-02T05:20:07;20.40;99.90
43906;DHT22;29564;46.622;13.818;2022-08-02T05:21:08;20.40;99.90
43906;DHT22;29564;46.622;13.818;2022-08-02T05:22:09;20.40;99.90
43906;DHT22;29564;46.622;13.818;2022-08-02T05:23:10;20.40;99.90
43906;DHT22;29564;46.622;13.818;2022-08-02T05:24:11;20.60;99.90
43906;DHT22;29564;46.622;13.818;2022-08-02T05:25:13;20.50;99.90
43906;DHT22;29564;46.622;13.818;2022-08-02T05:26:14;20.50;99.90
43906;DHT22;29564;46.622;13.818;2022-08-02T05:27:15;20.40;99.90
43906;DHT22;29564;46.622;13.818;2022-08-02T05:28:17;20.40;99.90
43906;DHT22;29564;46.622;13.818;2022-08-02T05:29:18;20.50;99.90
43906;DHT22;29564;46.622;13.818;2022-08-02T05:30:19;20.50;99.90
43906;DHT22;29564;46.622;13.818;2022-08-02T05:31:20;20.50;99.90
43906;DHT22;29564;46.622;13.818;2022-08-02T05:32:21;20.60;99.90
43906;DHT22;29564;46.622;13.818;2022-08-02T05:33:23;20.60;99.90
43906;DHT22;29564;46.622;13.818;2022-08-02T05:34:24;20.50;99.90
43906;DHT22;29564;46.622;13.818;2022-08-02T05:35:25;20.50;99.90
43906;DHT22;29564;46.622;13.818;2022-08-02T05:36:26;20.40;99.90
43906;DHT22;29564;46.622;13.818;2022-08-02T05:37:27;20.50;99.90
43906;DHT22;29564;46.622;13.818;2022-08-02T05:38:29;20.50;99.90
43906;DHT22;29564;46.622;13.818;2022-08-02T05:39:31;20.50;99.90
43906;DHT22;29564;46.622;13.818;2022-08-02T05:40:33;20.40;99.90
43906;DHT22;29564;46.622;13.818;2022-08-02T05:41:34;20.40;99.90
43906;DHT22;29564;46.622;13.818;2022-08-02T05:42:35;20.40;99.90
43906;DHT22;29564;46.622;13.818;2022-08-02T05:43:37;20.40;99.90
43906;DHT22;29564;46.622;13.818;2022-08-02T05:44:38;20.40;99.90
43906;DHT22;29564;46.622;13.818;2022-08-02T05:45:39;20.50;99.90
43906;DHT22;29564;46.622;13.818;2022-08-02T05:46:41;20.50;99.90
43906;DHT22;29564;46.622;13.818;2022-08-02T05:47:42;20.50;99.90
43906;DHT22;29564;46.622;13.818;2022-08-02T05:48:43;20.40;99.90
43906;DHT22;29564;46.622;13.818;2022-08-02T05:49:45;20.40;99.90
43906;DHT22;29564;46.622;13.818;2022-08-02T05:50:49;20.30;99.90
43906;DHT22;29564;46.622;13.818;2022-08-02T05:52:14;20.40;99.90
43906;DHT22;29564;46.622;13.818;2022-08-02T05:55:51;20.40;99.90
43906;DHT22;29564;46.622;13.818;2022-08-02T06:01:02;20.20;99.90
43906;DHT22;29564;46.622;13.818;2022-08-02T06:02:24;20.10;99.90
43906;DHT22;29564;46.622;13.818;2022-08-02T06:03:37;20.20;99.90
43906;DHT22;29564;46.622;13.818;2022-08-02T06:04:48;20.30;99.90
43906;DHT22;29564;46.622;13.818;2022-08-02T06:07:01;20.40;99.90
43906;DHT22;29564;46.622;13.818;2022-08-02T06:08:02;20.30;99.90
43906;DHT22;29564;46.622;13.818;2022-08-02T06:09:09;20.30;99.90
43906;DHT22;29564;46.622;13.818;2022-08-02T06:10:12;20.30;99.90
43906;DHT22;29564;46.622;13.818;2022-08-02T06:11:16;20.30;99.90
43906;DHT22;29564;46.622;13.818;2022-08-02T06:12:18;20.40;99.90
43906;DHT22;29564;46.622;13.818;2022-08-02T06:13:20;20.50;99.90
43906;DHT22;29564;46.622;13.818;2022-08-02T06:14:22;20.50;99.90
43906;DHT22;29564;46.622;13.818;2022-08-02T06:15:23;20.30;99.90
43906;DHT22;29564;46.622;13.818;2022-08-02T06:16:26;20.30;99.90
43906;DHT22;29564;46.622;13.818;2022-08-02T06:17:29;20.20;99.90
43906;DHT22;29564;46.622;13.818;2022-08-02T06:18:30;20.10;99.90
43906;DHT22;29564;46.622;13.818;2022-08-02T06:19:36;20.10;99.90
43906;DHT22;29564;46.622;13.818;2022-08-02T06:20:38;20.10;99.90
43906;DHT22;29564;46.622;13.818;2022-08-02T06:21:41;20.10;99.90
43906;DHT22;29564;46.622;13.818;2022-08-02T06:22:43;20.10;99.90
43906;DHT22;29564;46.622;13.818;2022-08-02T06:23:45;20.20;99.90
43906;DHT22;29564;46.622;13.818;2022-08-02T06:24:49;20.20;99.90
43906;DHT22;29564;46.622;13.818;2022-08-02T06:25:52;20.30;99.90
43906;DHT22;29564;46.622;13.818;2022-08-02T06:26:54;20.30;99.90
43906;DHT22;29564;46.622;13.818;2022-08-02T06:27:58;20.40;99.90
43906;DHT22;29564;46.622;13.818;2022-08-02T06:29:00;20.40;99.90
43906;DHT22;29564;46.622;13.818;2022-08-02T06:30:03;20.50;99.90
43906;DHT22;29564;46.622;13.818;2022-08-02T06:31:08;20.50;99.90
43906;DHT22;29564;46.622;13.818;2022-08-02T06:32:09;20.50;99.90
43906;DHT22;29564;46.622;13.818;2022-08-02T06:33:11;20.50;99.90
43906;DHT22;29564;46.622;13.818;2022-08-02T06:34:13;20.60;99.90
43906;DHT22;29564;46.622;13.818;2022-08-02T06:35:14;20.60;99.90
43906;DHT22;29564;46.622;13.818;2022-08-02T06:36:40;20.70;99.90
43906;DHT22;29564;46.622;13.818;2022-08-02T06:37:56;20.70;99.90
43906;DHT22;29564;46.622;13.818;2022-08-02T06:39:15;20.70;99.90
43906;DHT22;29564;46.622;13.818;2022-08-02T06:40:35;20.80;99.90
43906;DHT22;29564;46.622;13.818;2022-08-02T06:41:43;20.80;99.90
43906;DHT22;29564;46.622;13.818;2022-08-02T06:42:59;20.80;99.90
43906;DHT22;29564;46.622;13.818;2022-08-02T06:44:03;20.90;99.90
43906;DHT22;29564;46.622;13.818;2022-08-02T06:45:05;20.80;99.90
43906;DHT22;29564;46.622;13.818;2022-08-02T06:46:06;20.70;99.90
43906;DHT22;29564;46.622;13.818;2022-08-02T06:47:07;20.70;99.90
43906;DHT22;29564;46.622;13.818;2022-08-02T06:48:09;20.70;99.90